Chiclana de la Frontera, Spain
Current Conditions -  °F | °C
As of 7:30 PM on Sunday 25 Jan 2015 (Local Time) from LEJR Reporting Station
Clear Clear  
Wind Chill: 54°   Ceiling: Unl
Heat Index: 54°   Visibility: 6mi
Dew Point: 43°   Wind: 7mph
Humidity: 67%   Direction: 360°N
Pressure: 30.27"   Gusts: NA
Location:  36.42°N, 6.15°W
Report Text: LEJR 251830Z 36006KT CAVOK 12/06 Q1025
Loading
Personal Weather Stations






























Interactive Weather Map New forecast layout! Learn more

10-Day Weather Forecast

Advertisements
Track Severe Weather on mobile